• Join FlightAware (Why Join?)
  • Login
  • US Flag 
06:41PM EDT


 

Airport Tracker/Info


-or-


 

Live Flight TrackerFlight Track Log ✈ UAL5840 ✈ 18-Apr-2013 ✈ CYWG - KORD

Flight Track Log - Related Links

Times and Time Zones

All times are in EDT time to prevent confusion due to time zone crossing. See the UAL5840 flight status page for this flight to view local times or setup timezone preferences in your user account.

Time Position Orientation Groundspeed Altitude Reporting Facility
EDT Latitude Longitude Course Direction KTS MPH feet Rate Location/Type
03:00PM 49.9333 -97.2333 137° Southeast 160 184 2,200  Level Winnipeg Center
03:01PM 49.9667 -97.2000 33° Northeast 170 196 4,700 2,220 Climbing Winnipeg Center
03:02PM 49.9500 -97.1167 107° East 280 322 6,700 2,340 Climbing Winnipeg Center
03:03PM 49.8667 -97.1167 180° South 290 334 9,400 2,100 Climbing Winnipeg Center
03:04PM 49.8000 -97.1000 171° South 320 368 11,000 1,320 Climbing Winnipeg Center
03:05PM 49.7000 -97.0167 152° Southeast 370 426 12,100 1,260 Climbing Winnipeg Center
03:06PM 49.4487 -96.5815 137° Southeast  Level Estimated
03:06PM 49.6167 -96.9333 147° Southeast 380 437 13,600  Level Winnipeg Center
03:07PM 49.5167 -96.8333 147° Southeast 390 449 15,400 1,800 Climbing Winnipeg Center
03:08PM 49.4333 -96.7667 153° Southeast 390 449 17,200 1,800 Climbing Winnipeg Center
03:09PM 49.3500 -96.6833 147° Southeast 380 437 19,000 2,100 Climbing Winnipeg Center
03:10PM 49.2500 -96.5833 147° Southeast 370 426 21,500 2,280 Climbing Winnipeg Center
03:11PM 49.1833 -96.5333 154° Southeast 340 391 23,600 1,920 Climbing Winnipeg Center
03:12PM 49.1000 -96.4333 142° Southeast 340 391 25,400 1,860 Climbing Winnipeg Center
03:13PM 49.0000 -96.3500 151° Southeast 340 391 27,400 2,100 Climbing Winnipeg Center
03:14PM 48.9167 -96.3000 158° South 320 368 29,600 2,040 Climbing Winnipeg Center
03:15PM 48.8500 -96.2333 147° Southeast 300 345 31,500 1,440 Climbing Winnipeg Center
03:16PM 48.7833 -96.1833 154° Southeast 290 334 32,500 960 Climbing Winnipeg Center
03:17PM 48.7167 -96.1000 140° Southeast 300 345 33,500 900 Climbing Winnipeg Center
03:18PM 48.7136 -96.0931 124° Southeast 296 341 33,900 600 Climbing Minneapolis Center
03:19PM 48.6425 -96.0264 148° Southeast 300 345 34,500 480 Climbing Minneapolis Center
03:20PM 48.5528 -95.9444 149° Southeast 309 356 35,000 240 Climbing Minneapolis Center
03:21PM 48.4714 -95.8711 149° Southeast 328 377 35,000  Level Minneapolis Center
03:22PM 48.3856 -95.7919 149° Southeast 351 404 35,000  Level Minneapolis Center
03:23PM 48.2925 -95.7083 149° Southeast 376 433 35,000  Level Minneapolis Center
03:24PM 48.1967 -95.6214 149° Southeast 393 452 35,000  Level Minneapolis Center
03:25PM 48.0989 -95.5342 149° Southeast 404 465 35,000  Level Minneapolis Center
03:26PM 47.9947 -95.4425 149° Southeast 405 466 35,000  Level Minneapolis Center
03:27PM 47.9014 -95.3581 149° Southeast 400 460 35,000  Level Minneapolis Center
03:28PM 47.8061 -95.2750 150° Southeast 398 458 35,000 -60 Level Minneapolis Center
03:29PM 47.7114 -95.1917 149° Southeast 398 458 34,900  Descending Minneapolis Center
03:30PM 47.6014 -95.0933 149° Southeast 391 450 35,000  Climbing Minneapolis Center
03:31PM 47.5094 -95.0125 149° Southeast 386 444 35,000 -60 Level Minneapolis Center
03:32PM 47.4183 -94.9314 149° Southeast 385 443 34,900  Descending Minneapolis Center
03:33PM 47.3256 -94.8528 150° Southeast 386 444 35,000  Climbing Minneapolis Center
03:34PM 47.2358 -94.7739 149° Southeast 380 437 35,000 -60 Level Minneapolis Center
03:35PM 47.1436 -94.6958 150° Southeast 383 441 34,900  Descending Minneapolis Center
03:36PM 47.0531 -94.6181 150° Southeast 381 438 35,000  Climbing Minneapolis Center
03:37PM 46.9464 -94.5281 150° Southeast 373 429 35,000  Level Minneapolis Center
03:38PM 46.8575 -94.4519 150° Southeast 372 428 35,000  Level Minneapolis Center
03:39PM 46.7689 -94.3764 150° Southeast 371 427 35,000  Level Minneapolis Center
03:40PM 46.6814 -94.3036 150° Southeast 366 421 35,000  Level Minneapolis Center
03:41PM 46.5919 -94.2306 151° Southeast 369 425 35,000  Level Minneapolis Center
03:42PM 46.5044 -94.1558 150° Southeast 368 423 35,000  Level Minneapolis Center
03:43PM 46.4161 -94.0828 150° Southeast 368 423 35,000  Level Minneapolis Center
03:44PM 46.3269 -94.0136 152° Southeast 366 421 35,000  Level Minneapolis Center
03:45PM 46.2158 -93.9536 160° South 358 412 35,000  Level Minneapolis Center
03:47PM 46.1258 -93.9031 159° South 353 406 35,000  Level Minneapolis Center
03:48PM 46.0322 -93.8544 160° South 356 410 35,000  Level Minneapolis Center
03:49PM 45.9403 -93.8028 159° South 357 411 35,000  Level Minneapolis Center
03:50PM 45.8486 -93.7514 159° South 355 409 35,000  Level Minneapolis Center
03:51PM 45.7561 -93.7028 160° South 355 409 35,000  Level Minneapolis Center
03:52PM 45.6456 -93.6425 159° South 354 407 35,000  Level Minneapolis Center
03:53PM 45.5542 -93.5922 159° South 352 405 35,000 480 Level Minneapolis Center
03:54PM 45.4753 -93.5064 143° Southeast 364 419 36,100 960 Climbing Minneapolis Center
03:55PM 45.4161 -93.3867 125° Southeast 370 426 37,000 420 Climbing Minneapolis Center
03:56PM 45.3583 -93.2669 124° Southeast 367 422 37,000  Level Minneapolis Center
03:57PM 45.2983 -93.1433 125° Southeast 376 433 37,000  Level Minneapolis Center
03:58PM 45.2364 -93.0153 124° Southeast 387 445 37,000  Level Minneapolis Center
03:59PM 45.1708 -92.8833 125° Southeast 400 460 37,000  Level Minneapolis Center
04:00PM 45.1039 -92.7472 125° Southeast 413 475 37,000  Level Minneapolis Center
04:01PM 45.0242 -92.5878 125° Southeast 411 473 37,000  Level Minneapolis Center
04:02PM 44.9625 -92.4647 125° Southeast 388 447 37,000  Level Minneapolis Center
04:03PM 44.9019 -92.3439 125° Southeast 379 436 37,000  Level Minneapolis Center
04:04PM 44.8406 -92.2214 125° Southeast 382 440 37,000  Level Minneapolis Center
04:05PM 44.7786 -92.0986 125° Southeast 384 442 37,000  Level Minneapolis Center
04:06PM 44.7161 -91.9744 125° Southeast 387 445 37,000  Level Minneapolis Center
04:07PM 44.6494 -91.8456 126° Southeast 400 460 37,000  Level Minneapolis Center
04:08PM 44.5814 -91.7183 127° Southeast 407 468 37,000  Level Minneapolis Center
04:09PM 44.5086 -91.5958 130° Southeast 408 470 37,000  Level Minneapolis Center
04:10PM 44.4228 -91.4481 129° Southeast 410 472 37,000  Level Minneapolis Center
04:11PM 44.3494 -91.3233 129° Southeast 413 475 37,000 -480 Level Minneapolis Center
04:12PM 44.2783 -91.2014 129° Southeast 407 468 36,100 -1,260 Descending Minneapolis Center
04:13PM 44.2125 -91.0894 129° Southeast 385 443 34,500 -1,560 Descending Minneapolis Center
04:14PM 44.1497 -90.9806 129° Southeast 372 428 33,000 -1,560 Descending Minneapolis Center
04:15PM 44.0856 -90.8769 131° Southeast 363 418 31,400 -1,020 Descending Minneapolis Center
04:16PM 44.0169 -90.7622 130° Southeast 377 434 31,000 -600 Descending Minneapolis Center
04:17PM 43.9453 -90.6411 129° Southeast 399 459 30,200 -1,260 Descending Minneapolis Center
04:18PM 43.8644 -90.5103 131° Southeast 398 458 28,200 -1,920 Descending Minneapolis Center
04:20PM 43.7803 -90.3686 129° Southeast 364 419 25,900 -2,100 Descending Minneapolis Center
04:21PM 43.7242 -90.2750 130° Southeast 349 402 24,000 -2,040 Descending Minneapolis Center
04:22PM 43.6556 -90.1642 131° Southeast 349 402 21,800 -1,500 Descending Minneapolis Center
04:23PM 43.5900 -90.0550 130° Southeast 362 417 21,000 -420 Descending Minneapolis Center
04:24PM 43.5183 -89.9383 130° Southeast 384 442 21,000  Level Minneapolis Center
04:25PM 43.4408 -89.8136 131° Southeast 420 483 21,000  Level Chicago Center
04:26PM 43.3619 -89.6886 131° Southeast 431 496 21,000 -180 Level Chicago Center
04:27PM 43.2872 -89.5683 130° Southeast 417 480 20,700 -720 Descending Chicago Center
04:28PM 43.2139 -89.4508 131° Southeast 409 471 19,600 -1,260 Descending Chicago Center
04:29PM 43.1344 -89.3442 136° Southeast 407 468 18,200 -1,680 Descending Chicago Center
04:30PM 43.0367 -89.2972 161° South 373 429 16,200 -1,860 Descending Chicago Center
04:31PM 42.9275 -89.2528 163° South 353 406 14,400 -1,500 Descending Chicago Center
04:32PM 42.8436 -89.1919 152° Southeast 353 406 13,100 -720 Descending Chicago Center
04:33PM 42.7764 -89.0911 132° Southeast 360 414 13,000 -300 Descending Chicago Center
04:34PM 42.7089 -88.9900 132° Southeast 362 417 12,600 -720 Descending Chicago Center
04:35PM 42.6414 -88.8900 133° Southeast 361 415 11,600 -1,080 Descending Chicago Center
04:36PM 42.5642 -88.7769 133° Southeast 352 405 10,400 -780 Descending Chicago Center
04:37PM 42.4983 -88.6814 133° Southeast 348 400 10,000 -600 Descending Chicago Center
04:38PM 42.4431 -88.5989 132° Southeast 299 344 9,200 -540 Descending Chicago Center
04:39PM 42.4131 -88.5236 118° Southeast 261 300 9,000 -120 Descending Chicago Center
04:40PM 42.4244 -88.4250 81° East 263 303 9,000  Level Chicago Center
04:41PM 42.4333 -88.3253 83° East 239 275 9,000 -600 Level Chicago Center
04:42PM 42.3861 -88.3042 162° South 192 221 7,800 -1,020 Descending Chicago Center
04:43PM 42.3392 -88.2972 174° South 173 199 7,000 -420 Descending Chicago Center
04:44PM 42.2903 -88.2775 163° South 168 193 7,000  Level Chicago Center
04:45PM 42.2561 -88.2342 137° Southeast 168 193 7,000 -240 Level Chicago Center
04:46PM 42.2217 -88.1950 140° Southeast 164 189 6,600 -660 Descending Chicago Center
04:47PM 42.1875 -88.1586 142° Southeast 161 185 5,700 -900 Descending Chicago Center
04:48PM 42.1547 -88.1211 140° Southeast 156 180 4,800 -840 Descending Chicago Center
04:49PM 42.1228 -88.0842 139° Southeast 153 176 4,000 -840 Descending Chicago Center
04:50PM 42.0850 -88.0403 139° Southeast 152 175 3,100 -900 Descending Chicago Center
04:51PM 42.0511 -88.0039 141° Southeast 153 176 2,200 -840 Descending Chicago Center
04:52PM 42.0167 -87.9667 141° Southeast 139 160 1,300 -840 Descending Chicago TRACON
04:54PM 41.9817 -87.9067 143° Southeast  Level Estimated
05:01PM 41.9817 -87.9067 143° Southeast  Level Estimated